Time;durP1;ratioP1;P1;durP2;ratioP2;P2;SDS_P1;SDS_P2;PMS_P1;PMS_P2;Temp;Humidity;BMP_temperature;BMP_pressure;BME280_temperature;BME280_humidity;BME280_pressure;Samples;Min_cycle;Max_cycle;Signal;HPM_P1;HPM_P2
2021/05/01 00:02:17;;;;;;;33.13;20.15;;;;;;;;;;5067939;28;20044;-67
2021/05/01 00:04:45;;;;;;;33.72;19.83;;;;;;;;;;5069836;28;20048;-67
2021/05/01 00:07:12;;;;;;;28.08;18.23;;;;;;;;;;5066340;28;20489;-66
2021/05/01 00:09:39;;;;;;;30.17;19.33;;;;;;;;;;5067543;28;20155;-66
2021/05/01 00:12:07;;;;;;;29.83;18.95;;;;;;;;;;5065857;28;20136;-67
2021/05/01 00:14:36;;;;;;;30.50;19.42;;;;;;;;;;5050931;28;20136;-67
2021/05/01 00:17:03;;;;;;;31.63;19.85;;;;;;;;;;5058659;28;20556;-66
2021/05/01 00:19:33;;;;;;;32.47;20.17;;;;;;;;;;5057865;28;20044;-66
2021/05/01 00:22:01;;;;;;;31.40;19.77;;;;;;;;;;5073231;28;20041;-67
2021/05/01 00:24:28;;;;;;;29.90;19.20;;;;;;;;;;5072409;28;20385;-67
2021/05/01 00:26:55;;;;;;;31.52;20.20;;;;;;;;;;5070771;28;20048;-66
2021/05/01 00:29:22;;;;;;;29.40;18.67;;;;;;;;;;5073487;28;20475;-67
2021/05/01 00:31:50;;;;;;;31.08;18.70;;;;;;;;;;5073757;28;20542;-66
2021/05/01 00:34:17;;;;;;;28.73;18.17;;;;;;;;;;5073037;28;20106;-66
2021/05/01 00:36:45;;;;;;;29.50;19.05;;;;;;;;;;5070969;28;20117;-67
2021/05/01 00:39:14;;;;;;;29.20;18.58;;;;;;;;;;5069000;28;20044;-67
2021/05/01 00:41:41;;;;;;;32.95;20.42;;;;;;;;;;5064868;28;20181;-67
2021/05/01 00:44:10;;;;;;;34.10;20.63;;;;;;;;;;5073003;28;20048;-66
2021/05/01 00:46:37;;;;;;;30.90;20.02;;;;;;;;;;5070910;28;20085;-66
2021/05/01 00:49:05;;;;;;;31.73;20.13;;;;;;;;;;5070900;28;20045;-66
2021/05/01 00:51:33;;;;;;;31.23;20.92;;;;;;;;;;5073312;28;20088;-66
2021/05/01 00:54:01;;;;;;;34.45;21.30;;;;;;;;;;5072930;28;20551;-66
2021/05/01 00:56:29;;;;;;;32.58;20.60;;;;;;;;;;5068260;28;20144;-66
2021/05/01 00:58:56;;;;;;;34.53;20.85;;;;;;;;;;5072529;28;20135;-66
2021/05/01 01:01:25;;;;;;;31.85;20.13;;;;;;;;;;5070836;28;20388;-66
2021/05/01 01:03:52;;;;;;;33.20;21.88;;;;;;;;;;5087709;22;20152;-61
2021/05/01 01:06:20;;;;;;;32.63;21.50;;;;;;;;;;5076910;28;20122;-61
2021/05/01 01:08:47;;;;;;;34.22;21.17;;;;;;;;;;5071499;28;20072;-61
2021/05/01 01:11:16;;;;;;;39.38;21.83;;;;;;;;;;5071752;28;20075;-61
2021/05/01 01:14:03;;;;;;;36.10;21.27;;;;;;;;;;5072235;28;20045;-61
2021/05/01 01:16:31;;;;;;;38.20;22.95;;;;;;;;;;5069615;28;20079;-61
2021/05/01 01:18:59;;;;;;;37.30;22.80;;;;;;;;;;5072576;28;20056;-61
2021/05/01 01:21:27;;;;;;;38.38;23.45;;;;;;;;;;5072195;28;20595;-61
2021/05/01 01:23:55;;;;;;;37.83;22.80;;;;;;;;;;5073880;28;20060;-61
2021/05/01 01:26:23;;;;;;;39.33;22.73;;;;;;;;;;5072503;28;20128;-60
2021/05/01 01:28:50;;;;;;;35.65;22.15;;;;;;;;;;5071226;28;20053;-61
2021/05/01 01:31:18;;;;;;;38.55;23.35;;;;;;;;;;5071299;28;20045;-61
2021/05/01 01:33:45;;;;;;;39.22;23.33;;;;;;;;;;5072467;28;20052;-60
2021/05/01 01:36:12;;;;;;;37.88;23.52;;;;;;;;;;5071898;28;20048;-61
2021/05/01 01:38:40;;;;;;;40.72;24.13;;;;;;;;;;5072161;28;20507;-61
2021/05/01 01:41:08;;;;;;;41.05;24.65;;;;;;;;;;5070884;28;20492;-64
2021/05/01 01:43:37;;;;;;;41.63;24.42;;;;;;;;;;5073422;28;20420;-61
2021/05/01 01:46:04;;;;;;;39.15;23.40;;;;;;;;;;5072220;28;20110;-61
2021/05/01 01:48:32;;;;;;;37.83;23.60;;;;;;;;;;5071528;28;20061;-61
2021/05/01 01:50:59;;;;;;;37.20;23.45;;;;;;;;;;5071605;28;20048;-61
2021/05/01 01:53:26;;;;;;;40.47;24.98;;;;;;;;;;5072572;28;20139;-60
2021/05/01 01:55:54;;;;;;;39.70;24.02;;;;;;;;;;5070666;28;20056;-61
2021/05/01 01:58:23;;;;;;;41.10;24.45;;;;;;;;;;5072380;28;20084;-61
2021/05/01 02:00:51;;;;;;;39.30;24.48;;;;;;;;;;5070711;28;20043;-61
2021/05/01 02:03:19;;;;;;;40.30;24.23;;;;;;;;;;5071710;28;20076;-61
2021/05/01 02:05:46;;;;;;;39.88;25.08;;;;;;;;;;5070835;28;20049;-61
2021/05/01 02:08:14;;;;;;;38.28;23.30;;;;;;;;;;5071961;28;20080;-61
2021/05/01 02:10:42;;;;;;;39.92;24.10;;;;;;;;;;5072051;28;20353;-61
2021/05/01 02:13:10;;;;;;;37.88;23.88;;;;;;;;;;5069455;28;20045;-61
2021/05/01 02:15:39;;;;;;;39.35;24.00;;;;;;;;;;5067440;28;20415;-61
2021/05/01 02:18:07;;;;;;;40.03;24.08;;;;;;;;;;5071479;28;20133;-61
2021/05/01 02:20:35;;;;;;;42.28;24.48;;;;;;;;;;5069525;28;20045;-61
2021/05/01 02:23:03;;;;;;;40.65;24.25;;;;;;;;;;5071538;28;20113;-61
2021/05/01 02:25:30;;;;;;;43.35;25.30;;;;;;;;;;5070779;28;20825;-61
2021/05/01 02:27:58;;;;;;;44.53;26.00;;;;;;;;;;5071197;28;20472;-61
2021/05/01 02:30:26;;;;;;;41.85;24.98;;;;;;;;;;5071062;28;20145;-61
2021/05/01 02:32:55;;;;;;;41.45;25.95;;;;;;;;;;5071775;28;20048;-61
2021/05/01 02:35:24;;;;;;;41.97;25.02;;;;;;;;;;5070346;28;20439;-62
2021/05/01 02:37:52;;;;;;;41.00;25.45;;;;;;;;;;5065008;28;20079;-62
2021/05/01 02:40:21;;;;;;;42.65;25.38;;;;;;;;;;5069769;28;20068;-62
2021/05/01 02:42:48;;;;;;;40.88;24.45;;;;;;;;;;5071397;28;20045;-62
2021/05/01 02:45:16;;;;;;;43.80;25.55;;;;;;;;;;5070116;28;20147;-62
2021/05/01 02:47:44;;;;;;;45.95;26.45;;;;;;;;;;5065724;28;20052;-62
2021/05/01 02:50:13;;;;;;;45.13;26.08;;;;;;;;;;5071002;28;20059;-59
2021/05/01 02:52:40;;;;;;;45.45;26.52;;;;;;;;;;5071292;28;20060;-62
2021/05/01 02:55:09;;;;;;;45.17;26.65;;;;;;;;;;5069044;28;20040;-62
2021/05/01 02:57:36;;;;;;;48.88;26.92;;;;;;;;;;5069102;28;20094;-62
2021/05/01 03:00:05;;;;;;;46.95;28.00;;;;;;;;;;5070838;28;20110;-62
2021/05/01 03:02:33;;;;;;;45.28;26.25;;;;;;;;;;5065733;28;20493;-62
2021/05/01 03:05:01;;;;;;;46.17;27.05;;;;;;;;;;5070010;28;20056;-62
2021/05/01 03:07:34;;;;;;;43.90;25.88;;;;;;;;;;5069429;28;20080;-59
2021/05/01 03:10:02;;;;;;;42.17;25.83;;;;;;;;;;5064115;28;20503;-59
2021/05/01 03:12:29;;;;;;;45.38;27.10;;;;;;;;;;5068936;28;20132;-60
2021/05/01 03:14:58;;;;;;;52.58;28.25;;;;;;;;;;5068698;28;20071;-60
2021/05/01 03:17:25;;;;;;;45.83;27.15;;;;;;;;;;5068874;28;20048;-60
2021/05/01 03:19:53;;;;;;;48.40;27.02;;;;;;;;;;5071554;28;20048;-60
2021/05/01 03:22:20;;;;;;;47.13;27.95;;;;;;;;;;5070793;28;20094;-60
2021/05/01 03:24:48;;;;;;;48.95;28.80;;;;;;;;;;5065433;28;20045;-60
2021/05/01 03:27:16;;;;;;;47.92;27.13;;;;;;;;;;5056979;28;20450;-61
2021/05/01 03:29:45;;;;;;;43.97;26.02;;;;;;;;;;5066417;28;20484;-61
2021/05/01 03:32:12;;;;;;;51.22;28.75;;;;;;;;;;5069760;28;20052;-61
2021/05/01 03:34:40;;;;;;;48.60;28.08;;;;;;;;;;5069267;28;20052;-61
2021/05/01 03:37:07;;;;;;;44.58;26.40;;;;;;;;;;5069693;28;20102;-61
2021/05/01 03:39:35;;;;;;;51.05;27.33;;;;;;;;;;5070028;28;20044;-61
2021/05/01 03:42:04;;;;;;;49.42;28.25;;;;;;;;;;5070032;28;20514;-60
2021/05/01 03:44:32;;;;;;;49.33;27.38;;;;;;;;;;5069205;28;20068;-61
2021/05/01 03:46:59;;;;;;;46.38;27.50;;;;;;;;;;5054985;28;20064;-61
2021/05/01 03:49:26;;;;;;;46.85;27.25;;;;;;;;;;5065833;28;20058;-61
2021/05/01 03:51:54;;;;;;;47.67;26.77;;;;;;;;;;5070170;28;20444;-61
2021/05/01 03:54:22;;;;;;;47.78;26.92;;;;;;;;;;5070361;28;20044;-61
2021/05/01 03:56:49;;;;;;;48.85;27.52;;;;;;;;;;5069156;28;20060;-61
2021/05/01 03:59:17;;;;;;;47.30;27.23;;;;;;;;;;5067561;28;20056;-61
2021/05/01 04:01:44;;;;;;;45.63;27.13;;;;;;;;;;5067754;28;20068;-61
2021/05/01 04:04:12;;;;;;;50.90;27.35;;;;;;;;;;5083774;28;20086;-61
2021/05/01 04:06:39;;;;;;;48.42;28.52;;;;;;;;;;5069633;28;20055;-62
2021/05/01 04:09:07;;;;;;;48.17;28.52;;;;;;;;;;5071191;28;20073;-60
2021/05/01 04:11:35;;;;;;;46.70;27.52;;;;;;;;;;5069012;28;20079;-60
2021/05/01 04:14:03;;;;;;;54.40;30.13;;;;;;;;;;5068650;28;20072;-60
2021/05/01 04:16:31;;;;;;;46.72;26.55;;;;;;;;;;5068409;28;20087;-61
2021/05/01 04:18:58;;;;;;;45.65;27.42;;;;;;;;;;5068118;28;20488;-61
2021/05/01 04:21:26;;;;;;;49.70;27.75;;;;;;;;;;5069866;28;20051;-61
2021/05/01 04:23:53;;;;;;;50.33;28.05;;;;;;;;;;5068107;28;20049;-61
2021/05/01 04:26:22;;;;;;;50.78;27.60;;;;;;;;;;5070513;28;20052;-61
2021/05/01 04:28:50;;;;;;;51.35;29.65;;;;;;;;;;5067653;28;20071;-61
2021/05/01 04:31:18;;;;;;;49.45;27.73;;;;;;;;;;5071534;28;20044;-61
2021/05/01 04:33:46;;;;;;;46.15;27.45;;;;;;;;;;5066021;28;20526;-61
2021/05/01 04:36:14;;;;;;;46.60;27.80;;;;;;;;;;5070149;28;20053;-61
2021/05/01 04:38:42;;;;;;;47.92;27.60;;;;;;;;;;5068412;28;20079;-61
2021/05/01 04:41:11;;;;;;;48.22;26.75;;;;;;;;;;5069441;28;20074;-61
2021/05/01 04:43:40;;;;;;;47.03;27.58;;;;;;;;;;5070705;28;20041;-61
2021/05/01 04:46:07;;;;;;;47.75;27.58;;;;;;;;;;5069720;28;20098;-60
2021/05/01 04:48:35;;;;;;;51.50;28.20;;;;;;;;;;5070407;28;20140;-60
2021/05/01 04:51:03;;;;;;;49.33;28.48;;;;;;;;;;5070852;28;20076;-60
2021/05/01 04:53:31;;;;;;;45.63;27.42;;;;;;;;;;5069982;28;20140;-60
2021/05/01 04:55:58;;;;;;;51.20;28.45;;;;;;;;;;5069440;28;20076;-60
2021/05/01 04:58:25;;;;;;;49.15;27.80;;;;;;;;;;5070174;28;20052;-60
2021/05/01 05:00:53;;;;;;;49.35;28.00;;;;;;;;;;5068702;28;20135;-61
2021/05/01 05:03:21;;;;;;;46.75;26.63;;;;;;;;;;5071293;28;20614;-61
2021/05/01 05:05:48;;;;;;;47.30;26.52;;;;;;;;;;5072378;28;20125;-61
2021/05/01 05:08:16;;;;;;;45.22;27.15;;;;;;;;;;5073008;28;20198;-61
2021/05/01 05:10:44;;;;;;;50.20;28.38;;;;;;;;;;5073189;28;20469;-61
2021/05/01 05:13:11;;;;;;;49.20;27.42;;;;;;;;;;5073159;28;20133;-61
2021/05/01 05:15:38;;;;;;;48.33;27.38;;;;;;;;;;5073446;28;20076;-61
2021/05/01 05:18:06;;;;;;;46.97;26.30;;;;;;;;;;5073337;28;20502;-61
2021/05/01 05:20:33;;;;;;;44.88;25.63;;;;;;;;;;5074145;28;20045;-61
2021/05/01 05:23:01;;;;;;;44.67;26.40;;;;;;;;;;5072794;28;20131;-61
2021/05/01 05:25:29;;;;;;;46.90;26.40;;;;;;;;;;5070812;28;20048;-61
2021/05/01 05:27:56;;;;;;;43.72;25.63;;;;;;;;;;5071331;28;20045;-61
2021/05/01 05:30:25;;;;;;;44.17;25.25;;;;;;;;;;5072431;28;20048;-61
2021/05/01 05:32:52;;;;;;;45.72;26.35;;;;;;;;;;5072515;28;20056;-61
2021/05/01 05:35:19;;;;;;;42.42;25.15;;;;;;;;;;5069312;28;20089;-61
2021/05/01 05:37:47;;;;;;;49.08;26.88;;;;;;;;;;5065930;28;20351;-61
2021/05/01 05:40:15;;;;;;;46.50;26.88;;;;;;;;;;5070702;28;20078;-61
2021/05/01 05:42:44;;;;;;;48.58;28.30;;;;;;;;;;5070683;28;20045;-61
2021/05/01 05:45:12;;;;;;;44.80;26.17;;;;;;;;;;5070009;28;20131;-61
2021/05/01 05:47:40;;;;;;;51.83;28.88;;;;;;;;;;5069173;28;20064;-61
2021/05/01 05:50:07;;;;;;;47.25;27.58;;;;;;;;;;5069813;28;20052;-61
2021/05/01 05:52:35;;;;;;;48.72;27.63;;;;;;;;;;5069217;28;20044;-61
2021/05/01 05:55:02;;;;;;;52.05;28.88;;;;;;;;;;5069283;28;20044;-61
2021/05/01 05:57:29;;;;;;;50.10;28.45;;;;;;;;;;5069746;28;20064;-61
2021/05/01 05:59:58;;;;;;;49.53;27.80;;;;;;;;;;5069503;28;20049;-61
2021/05/01 06:02:25;;;;;;;50.47;27.75;;;;;;;;;;5069454;28;20143;-61
2021/05/01 06:04:57;;;;;;;55.65;30.75;;;;;;;;;;5069360;28;20064;-61
2021/05/01 06:07:28;;;;;;;52.03;30.00;;;;;;;;;;5068302;28;20060;-61
2021/05/01 06:09:57;;;;;;;56.25;29.85;;;;;;;;;;5068851;28;20080;-61
2021/05/01 06:12:25;;;;;;;51.22;29.58;;;;;;;;;;5072225;28;20332;-61
2021/05/01 06:14:54;;;;;;;55.55;30.70;;;;;;;;;;5069492;28;20088;-61
2021/05/01 06:17:22;;;;;;;48.78;29.50;;;;;;;;;;5069160;28;20052;-61
2021/05/01 06:19:51;;;;;;;49.67;28.27;;;;;;;;;;5068781;28;20056;-61
2021/05/01 06:22:18;;;;;;;45.75;26.35;;;;;;;;;;5068690;28;20057;-61
2021/05/01 06:24:46;;;;;;;50.33;27.20;;;;;;;;;;5068930;28;20052;-61
2021/05/01 06:27:17;;;;;;;47.08;28.00;;;;;;;;;;5068502;28;20080;-61
2021/05/01 06:29:45;;;;;;;47.35;27.02;;;;;;;;;;5068911;28;20052;-61
2021/05/01 06:32:13;;;;;;;49.63;29.27;;;;;;;;;;5068071;28;20052;-61
2021/05/01 06:34:44;;;;;;;46.63;27.30;;;;;;;;;;5064881;28;20407;-61
2021/05/01 06:37:13;;;;;;;46.17;27.73;;;;;;;;;;5064320;28;20519;-61
2021/05/01 06:39:41;;;;;;;45.88;28.00;;;;;;;;;;5067073;28;20131;-61
2021/05/01 06:42:12;;;;;;;48.10;28.48;;;;;;;;;;5049520;28;20088;-61
2021/05/01 06:44:41;;;;;;;50.47;28.67;;;;;;;;;;5058407;28;20704;-61
2021/05/01 06:47:13;;;;;;;46.97;27.42;;;;;;;;;;5067721;28;20118;-61
2021/05/01 06:49:49;;;;;;;45.33;26.77;;;;;;;;;;5068294;28;20141;-60
2021/05/01 06:52:17;;;;;;;46.42;26.65;;;;;;;;;;5068860;28;20097;-61
2021/05/01 06:54:50;;;;;;;44.95;25.67;;;;;;;;;;5066879;28;20288;-61
2021/05/01 06:57:21;;;;;;;48.42;26.83;;;;;;;;;;5067309;28;20464;-61
2021/05/01 06:59:52;;;;;;;48.30;26.23;;;;;;;;;;5067285;28;20095;-62
2021/05/01 07:02:23;;;;;;;47.35;27.10;;;;;;;;;;5065533;28;20408;-62
2021/05/01 07:04:53;;;;;;;46.45;26.35;;;;;;;;;;5066983;28;20135;-61
2021/05/01 07:07:22;;;;;;;44.22;25.65;;;;;;;;;;5066998;28;20048;-62
2021/05/01 07:09:49;;;;;;;45.00;26.00;;;;;;;;;;5067058;28;20119;-62
2021/05/01 07:12:19;;;;;;;47.35;25.90;;;;;;;;;;5067093;28;20075;-62
2021/05/01 07:14:46;;;;;;;41.83;24.48;;;;;;;;;;5069648;28;20341;-62
2021/05/01 07:17:14;;;;;;;41.95;25.92;;;;;;;;;;5063811;28;20415;-62
2021/05/01 07:19:44;;;;;;;41.30;23.27;;;;;;;;;;5066129;28;20053;-61
2021/05/01 07:22:13;;;;;;;35.85;21.40;;;;;;;;;;5066715;28;20060;-61
2021/05/01 07:24:41;;;;;;;45.28;25.60;;;;;;;;;;5066645;28;20056;-62
2021/05/01 07:27:09;;;;;;;45.80;25.90;;;;;;;;;;5064885;28;20129;-61
2021/05/01 07:29:39;;;;;;;39.80;23.75;;;;;;;;;;5066177;28;20122;-62
2021/05/01 07:32:07;;;;;;;39.28;24.02;;;;;;;;;;5065841;28;20048;-62
2021/05/01 07:34:35;;;;;;;39.75;22.30;;;;;;;;;;5074778;28;20143;-61
2021/05/01 07:37:03;;;;;;;39.28;22.80;;;;;;;;;;5065041;28;20049;-61
2021/05/01 07:39:33;;;;;;;35.47;20.92;;;;;;;;;;5067391;28;20064;-62
2021/05/01 07:42:03;;;;;;;31.38;20.00;;;;;;;;;;5066400;28;20063;-61
2021/05/01 07:44:32;;;;;;;33.90;20.17;;;;;;;;;;5067276;28;20079;-63
2021/05/01 07:47:00;;;;;;;36.15;20.63;;;;;;;;;;5063850;28;20130;-62
2021/05/01 07:49:29;;;;;;;36.72;21.13;;;;;;;;;;5077566;28;20052;-62
2021/05/01 07:51:56;;;;;;;38.38;21.98;;;;;;;;;;5081916;28;20048;-61
2021/05/01 07:54:24;;;;;;;32.28;21.13;;;;;;;;;;5066766;28;20151;-63
2021/05/01 07:56:52;;;;;;;32.45;20.33;;;;;;;;;;5063848;28;20052;-61
2021/05/01 07:59:20;;;;;;;32.75;19.15;;;;;;;;;;5061036;28;20087;-62
2021/05/01 08:01:48;;;;;;;30.90;17.35;;;;;;;;;;5065448;28;20058;-61
2021/05/01 08:04:16;;;;;;;31.15;18.65;;;;;;;;;;5066297;28;20078;-61
2021/05/01 08:06:43;;;;;;;26.80;17.50;;;;;;;;;;5063798;28;20072;-61
2021/05/01 08:09:11;;;;;;;26.48;16.08;;;;;;;;;;5063130;28;20136;-62
2021/05/01 08:11:39;;;;;;;29.65;18.13;;;;;;;;;;5067867;28;20517;-62
2021/05/01 08:14:07;;;;;;;28.27;16.80;;;;;;;;;;5069071;28;20080;-63
2021/05/01 08:16:35;;;;;;;28.75;17.15;;;;;;;;;;5068327;28;20052;-62
2021/05/01 08:19:04;;;;;;;26.60;15.85;;;;;;;;;;5067938;28;20101;-62
2021/05/01 08:21:32;;;;;;;28.52;17.00;;;;;;;;;;5066790;28;20075;-63
2021/05/01 08:23:59;;;;;;;24.67;15.60;;;;;;;;;;5061561;28;20496;-63
2021/05/01 08:26:27;;;;;;;25.83;16.60;;;;;;;;;;5068441;28;20549;-64
2021/05/01 08:28:54;;;;;;;26.38;16.00;;;;;;;;;;5073870;28;20154;-62
2021/05/01 08:31:23;;;;;;;27.08;16.63;;;;;;;;;;5069532;28;20080;-63
2021/05/01 08:33:51;;;;;;;25.42;15.82;;;;;;;;;;5069205;28;20109;-62
2021/05/01 08:36:20;;;;;;;26.33;16.83;;;;;;;;;;5068039;28;20045;-61
2021/05/01 08:38:47;;;;;;;27.55;17.83;;;;;;;;;;5068818;28;20139;-63
2021/05/01 08:41:15;;;;;;;29.75;18.40;;;;;;;;;;5073011;28;20571;-63
2021/05/01 08:43:43;;;;;;;27.45;17.17;;;;;;;;;;5072929;28;20060;-62
2021/05/01 08:46:14;;;;;;;29.63;17.20;;;;;;;;;;5070863;28;20040;-62
2021/05/01 08:48:46;;;;;;;25.13;16.50;;;;;;;;;;5071511;28;20052;-63
2021/05/01 08:51:15;;;;;;;29.10;18.77;;;;;;;;;;5072304;28;20056;-62
2021/05/01 08:53:43;;;;;;;27.95;16.45;;;;;;;;;;5071673;28;20614;-62
2021/05/01 08:56:11;;;;;;;28.25;18.27;;;;;;;;;;5072077;28;20102;-63
2021/05/01 08:58:38;;;;;;;29.35;17.77;;;;;;;;;;5071736;28;20171;-63
2021/05/01 09:01:08;;;;;;;27.10;16.90;;;;;;;;;;5072075;28;20083;-63
2021/05/01 09:03:37;;;;;;;32.30;17.65;;;;;;;;;;5072104;28;20064;-62
2021/05/01 09:06:08;;;;;;;26.40;17.00;;;;;;;;;;5070767;28;20048;-64
2021/05/01 09:08:40;;;;;;;29.55;18.23;;;;;;;;;;5071054;28;20102;-63
2021/05/01 09:11:08;;;;;;;25.02;16.88;;;;;;;;;;5071981;28;20059;-62
2021/05/01 09:13:46;;;;;;;26.40;16.70;;;;;;;;;;5072593;28;20036;-62
2021/05/01 09:16:16;;;;;;;24.63;15.60;;;;;;;;;;5071379;28;20052;-63
2021/05/01 09:18:45;;;;;;;25.23;15.63;;;;;;;;;;5070502;28;20508;-62
2021/05/01 09:21:14;;;;;;;29.67;16.92;;;;;;;;;;5065923;28;20420;-62
2021/05/01 09:23:42;;;;;;;27.52;17.15;;;;;;;;;;5071620;28;20128;-62
2021/05/01 09:26:09;;;;;;;27.63;17.83;;;;;;;;;;5066137;28;20096;-63
2021/05/01 09:28:40;;;;;;;25.67;15.98;;;;;;;;;;5070545;28;20044;-62
2021/05/01 09:31:09;;;;;;;26.48;16.45;;;;;;;;;;5071028;28;20110;-64
2021/05/01 09:33:37;;;;;;;23.85;15.38;;;;;;;;;;5069962;28;20060;-63
2021/05/01 09:36:07;;;;;;;26.20;16.20;;;;;;;;;;5070158;28;20049;-62
2021/05/01 09:38:36;;;;;;;26.85;17.05;;;;;;;;;;5071314;28;20143;-62
2021/05/01 09:41:08;;;;;;;25.10;16.35;;;;;;;;;;5071069;28;20048;-62
2021/05/01 09:43:36;;;;;;;28.27;16.80;;;;;;;;;;5071826;28;20048;-62
2021/05/01 09:46:14;;;;;;;25.92;15.73;;;;;;;;;;5070994;28;20434;-62
2021/05/01 09:48:41;;;;;;;25.33;16.45;;;;;;;;;;5069519;28;20458;-62
2021/05/01 09:51:09;;;;;;;28.27;15.60;;;;;;;;;;5071237;28;20064;-62
2021/05/01 09:53:39;;;;;;;24.30;14.82;;;;;;;;;;5071331;28;20427;-62
2021/05/01 09:56:12;;;;;;;24.40;15.63;;;;;;;;;;5070478;28;20056;-62
2021/05/01 09:58:53;;;;;;;22.23;13.68;;;;;;;;;;5069419;28;20080;-62
2021/05/01 10:01:20;;;;;;;25.27;15.48;;;;;;;;;;5070404;28;20036;-62
2021/05/01 10:03:48;;;;;;;24.27;15.43;;;;;;;;;;5070277;28;20056;-62
2021/05/01 10:06:17;;;;;;;26.50;16.05;;;;;;;;;;5070590;28;20052;-61
2021/05/01 10:08:53;;;;;;;24.80;16.23;;;;;;;;;;5067297;28;20052;-62
2021/05/01 10:11:22;;;;;;;26.65;15.98;;;;;;;;;;5071921;28;20090;-61
2021/05/01 10:13:51;;;;;;;24.38;15.63;;;;;;;;;;5070693;28;20060;-61
2021/05/01 10:16:19;;;;;;;25.35;15.30;;;;;;;;;;5069702;28;20106;-61
2021/05/01 10:19:06;;;;;;;24.27;16.00;;;;;;;;;;5068899;28;20052;-62
2021/05/01 10:21:34;;;;;;;25.95;16.70;;;;;;;;;;5068730;28;20101;-62
2021/05/01 10:24:03;;;;;;;28.50;17.83;;;;;;;;;;5069830;28;20040;-62
2021/05/01 10:26:45;;;;;;;26.15;16.33;;;;;;;;;;5070216;28;20471;-62
2021/05/01 10:29:30;;;;;;;28.25;16.70;;;;;;;;;;5067195;28;20044;-62
2021/05/01 10:31:58;;;;;;;25.83;16.60;;;;;;;;;;5064869;28;20074;-63
2021/05/01 10:34:26;;;;;;;27.67;16.83;;;;;;;;;;5068931;28;20048;-63
2021/05/01 10:36:55;;;;;;;27.15;16.50;;;;;;;;;;5068236;28;20448;-62
2021/05/01 10:39:24;;;;;;;29.42;17.77;;;;;;;;;;5066148;28;20064;-62
2021/05/01 10:41:55;;;;;;;26.10;15.85;;;;;;;;;;5069621;28;20102;-62
2021/05/01 10:44:22;;;;;;;30.33;18.02;;;;;;;;;;5068401;28;20064;-62
2021/05/01 10:46:50;;;;;;;25.98;16.77;;;;;;;;;;5068086;28;20484;-62
2021/05/01 10:49:17;;;;;;;25.92;16.55;;;;;;;;;;5069760;28;20416;-62
2021/05/01 10:51:46;;;;;;;26.52;16.98;;;;;;;;;;5070702;28;20057;-62
2021/05/01 10:54:15;;;;;;;28.55;16.67;;;;;;;;;;5068775;28;20143;-61
2021/05/01 10:56:44;;;;;;;28.30;17.92;;;;;;;;;;5069325;28;20094;-62
2021/05/01 10:59:13;;;;;;;27.35;17.17;;;;;;;;;;5069967;28;20099;-62
2021/05/01 11:01:47;;;;;;;26.02;16.10;;;;;;;;;;5068641;28;20054;-62
2021/05/01 11:04:17;;;;;;;26.00;17.30;;;;;;;;;;5067944;28;20137;-61
2021/05/01 11:06:49;;;;;;;25.90;15.82;;;;;;;;;;5068637;28;20061;-62
2021/05/01 11:09:24;;;;;;;28.92;17.58;;;;;;;;;;5068820;28;20043;-62
2021/05/01 11:11:55;;;;;;;24.25;15.82;;;;;;;;;;5068082;28;20097;-62
2021/05/01 11:14:24;;;;;;;25.70;15.48;;;;;;;;;;5070194;28;20048;-62
2021/05/01 11:16:52;;;;;;;22.27;15.07;;;;;;;;;;5067772;28;20048;-62
2021/05/01 11:19:21;;;;;;;25.30;16.88;;;;;;;;;;5070490;28;20428;-63
2021/05/01 11:21:49;;;;;;;24.67;16.02;;;;;;;;;;5067481;28;20040;-62
2021/05/01 11:24:17;;;;;;;23.73;15.10;;;;;;;;;;5069363;28;20048;-62
2021/05/01 11:26:45;;;;;;;22.20;14.15;;;;;;;;;;5067510;28;20048;-62
2021/05/01 11:29:14;;;;;;;22.58;14.27;;;;;;;;;;5068615;28;20103;-62
2021/05/01 11:31:42;;;;;;;20.00;13.88;;;;;;;;;;5068139;28;20058;-62
2021/05/01 11:34:11;;;;;;;20.73;14.02;;;;;;;;;;5067892;28;20040;-62
2021/05/01 11:36:47;;;;;;;21.60;13.68;;;;;;;;;;5067759;28;20463;-62
2021/05/01 11:39:15;;;;;;;19.60;13.52;;;;;;;;;;5068128;28;20083;-62
2021/05/01 11:41:44;;;;;;;22.65;14.13;;;;;;;;;;5067921;28;20439;-62
2021/05/01 11:44:14;;;;;;;20.60;14.38;;;;;;;;;;5068392;28;20392;-62
2021/05/01 11:46:49;;;;;;;22.63;14.00;;;;;;;;;;5069239;28;20056;-62
2021/05/01 11:49:16;;;;;;;;;;;;;;;;;;5069071;28;20052;-62
2021/05/01 11:51:47;;;;;;;19.98;13.23;;;;;;;;;;5068491;28;20413;-62
2021/05/01 11:54:23;;;;;;;21.23;13.98;;;;;;;;;;5069448;28;20110;-62
2021/05/01 11:56:54;;;;;;;19.80;13.32;;;;;;;;;;5068411;28;20044;-61
2021/05/01 11:59:22;;;;;;;21.88;13.73;;;;;;;;;;5068908;28;20090;-61
2021/05/01 12:01:50;;;;;;;21.00;13.23;;;;;;;;;;5069124;28;20105;-61
2021/05/01 12:04:44;;;;;;;20.58;12.80;;;;;;;;;;2815708;28;10002228;-62
2021/05/01 12:07:16;;;;;;;19.63;13.20;;;;;;;;;;3681330;28;10001361;-61
2021/05/01 12:09:45;;;;;;;22.95;13.18;;;;;;;;;;5089741;28;20048;-61
2021/05/01 12:12:13;;;;;;;18.35;13.23;;;;;;;;;;5091863;28;20076;-61
2021/05/01 12:14:41;;;;;;;21.50;14.88;;;;;;;;;;5096421;28;20052;-61
2021/05/01 12:17:10;;;;;;;24.15;15.38;;;;;;;;;;5079267;28;20076;-62
2021/05/01 12:19:43;;;;;;;20.90;13.05;;;;;;;;;;5075702;28;20052;-62
2021/05/01 12:22:25;;;;;;;20.98;14.07;;;;;;;;;;5075237;28;20484;-62
2021/05/01 12:24:53;;;;;;;21.00;12.98;;;;;;;;;;5073364;28;20057;-62
2021/05/01 12:27:39;;;;;;;20.02;13.40;;;;;;;;;;5075554;28;20513;-62
2021/05/01 12:30:08;;;;;;;18.75;12.48;;;;;;;;;;5075588;28;20437;-62
2021/05/01 12:32:35;;;;;;;21.08;13.63;;;;;;;;;;5074944;28;20071;-62
2021/05/01 12:35:04;;;;;;;19.52;12.82;;;;;;;;;;5079151;28;20511;-61
2021/05/01 12:37:31;;;;;;;19.73;14.02;;;;;;;;;;5075423;28;20044;-62
2021/05/01 12:40:04;;;;;;;20.88;13.02;;;;;;;;;;5076780;28;20083;-61
2021/05/01 12:42:33;;;;;;;19.27;13.13;;;;;;;;;;5075381;28;20087;-62
2021/05/01 12:45:00;;;;;;;20.83;13.45;;;;;;;;;;5075585;28;20040;-62
2021/05/01 12:47:45;;;;;;;20.65;13.80;;;;;;;;;;5074566;28;20082;-62
2021/05/01 12:50:17;;;;;;;21.58;13.68;;;;;;;;;;5076141;28;20048;-61
2021/05/01 12:52:46;;;;;;;25.33;14.98;;;;;;;;;;5071516;28;20052;-61
2021/05/01 12:55:14;;;;;;;22.30;14.73;;;;;;;;;;5072382;28;20091;-61
2021/05/01 12:57:42;;;;;;;20.80;13.00;;;;;;;;;;5073017;28;20492;-62
2021/05/01 13:00:24;;;;;;;24.35;15.52;;;;;;;;;;5071607;28;20087;-62
2021/05/01 13:03:14;;;;;;;25.10;16.77;;;;;;;;;;5069704;28;20049;-62
2021/05/01 13:05:44;;;;;;;28.75;16.95;;;;;;;;;;5067599;28;20057;-62
2021/05/01 13:08:21;;;;;;;30.73;18.10;;;;;;;;;;5069264;28;20442;-62
2021/05/01 13:10:49;;;;;;;38.72;22.02;;;;;;;;;;5066748;28;20056;-61
2021/05/01 13:13:17;;;;;;;37.35;22.13;;;;;;;;;;5071935;28;20109;-62
2021/05/01 13:16:04;;;;;;;40.80;22.27;;;;;;;;;;5074805;28;20048;-62
2021/05/01 13:18:33;;;;;;;38.72;21.50;;;;;;;;;;5074026;28;20044;-62
2021/05/01 13:21:09;;;;;;;41.08;20.80;;;;;;;;;;5068358;28;20071;-62
2021/05/01 13:23:40;;;;;;;38.05;21.10;;;;;;;;;;5066621;28;20110;-62
2021/05/01 13:26:18;;;;;;;38.42;20.45;;;;;;;;;;5068029;28;20144;-62
2021/05/01 13:28:46;;;;;;;36.25;20.45;;;;;;;;;;5070934;28;20060;-62
2021/05/01 13:31:14;;;;;;;35.42;20.02;;;;;;;;;;5070646;28;20044;-62
2021/05/01 13:33:43;;;;;;;32.40;18.90;;;;;;;;;;5077111;28;20057;-61
2021/05/01 13:36:13;;;;;;;31.23;18.92;;;;;;;;;;5069578;28;20549;-61
2021/05/01 13:38:42;;;;;;;35.40;19.42;;;;;;;;;;5069890;28;20044;-63
2021/05/01 13:41:13;;;;;;;33.22;19.00;;;;;;;;;;5069896;28;20048;-62
2021/05/01 13:43:48;;;;;;;28.60;17.45;;;;;;;;;;5070167;28;20059;-62
2021/05/01 13:46:18;;;;;;;33.17;20.70;;;;;;;;;;5069811;28;20044;-62
2021/05/01 13:48:47;;;;;;;32.17;19.75;;;;;;;;;;5066741;28;20127;-62
2021/05/01 13:51:15;;;;;;;32.58;19.40;;;;;;;;;;5068437;28;20071;-62
2021/05/01 13:53:43;;;;;;;31.55;20.60;;;;;;;;;;5066604;28;20052;-62
2021/05/01 13:56:12;;;;;;;31.17;21.17;;;;;;;;;;5063645;28;20048;-62
2021/05/01 13:58:40;;;;;;;38.58;23.50;;;;;;;;;;5060587;28;20055;-62
2021/05/01 14:01:10;;;;;;;34.95;23.98;;;;;;;;;;5071418;28;20147;-62
2021/05/01 14:03:38;;;;;;;34.83;22.90;;;;;;;;;;5070188;28;20131;-62
2021/05/01 14:06:06;;;;;;;32.10;22.88;;;;;;;;;;5074106;28;20060;-62
2021/05/01 14:08:34;;;;;;;34.03;22.17;;;;;;;;;;5068276;28;20072;-62
2021/05/01 14:11:02;;;;;;;32.38;22.25;;;;;;;;;;5067220;28;20045;-61
2021/05/01 14:13:32;;;;;;;28.65;21.42;;;;;;;;;;5066573;28;20150;-59
2021/05/01 14:16:00;;;;;;;32.72;21.63;;;;;;;;;;5071050;28;20072;-59
2021/05/01 14:18:28;;;;;;;32.03;22.25;;;;;;;;;;5069719;28;20480;-59
2021/05/01 14:21:01;;;;;;;29.13;21.77;;;;;;;;;;5068152;28;20076;-60
2021/05/01 14:23:30;;;;;;;31.58;23.27;;;;;;;;;;5063696;28;20044;-61
2021/05/01 14:25:58;;;;;;;29.08;21.35;;;;;;;;;;5055687;28;20044;-62
2021/05/01 14:28:29;;;;;;;31.95;23.40;;;;;;;;;;5067359;28;20071;-61